sensor_id;sensor_type;location;lat;lon;timestamp;P1;durP1;ratioP1;P2;durP2;ratioP2
6955;SDS011;50345;51.136;16.886;2022-09-09T00:07:01;7.88;;;7.15;;
6955;SDS011;50345;51.136;16.886;2022-09-09T00:09:44;7.47;;;6.88;;
6955;SDS011;50345;51.136;16.886;2022-09-09T00:12:29;6.47;;;5.97;;
6955;SDS011;50345;51.136;16.886;2022-09-09T00:15:19;7.15;;;6.65;;
6955;SDS011;50345;51.136;16.886;2022-09-09T00:17:51;7.50;;;6.90;;
6955;SDS011;50345;51.136;16.886;2022-09-09T00:20:28;7.38;;;6.78;;
6955;SDS011;50345;51.136;16.886;2022-09-09T00:23:44;6.93;;;6.30;;
6955;SDS011;50345;51.136;16.886;2022-09-09T00:28:30;6.82;;;6.15;;
6955;SDS011;50345;51.136;16.886;2022-09-09T00:31:23;9.25;;;6.57;;
6955;SDS011;50345;51.136;16.886;2022-09-09T00:33:54;7.10;;;6.50;;
6955;SDS011;50345;51.136;16.886;2022-09-09T00:36:23;6.95;;;6.35;;
6955;SDS011;50345;51.136;16.886;2022-09-09T00:38:57;9.48;;;6.28;;
6955;SDS011;50345;51.136;16.886;2022-09-09T00:44:31;7.97;;;6.15;;
6955;SDS011;50345;51.136;16.886;2022-09-09T00:55:11;7.00;;;6.40;;
6955;SDS011;50345;51.136;16.886;2022-09-09T00:57:40;7.18;;;6.57;;
6955;SDS011;50345;51.136;16.886;2022-09-09T01:05:13;7.40;;;6.80;;
6955;SDS011;50345;51.136;16.886;2022-09-09T01:07:50;8.15;;;7.35;;
6955;SDS011;50345;51.136;16.886;2022-09-09T01:13:16;7.28;;;6.70;;
6955;SDS011;50345;51.136;16.886;2022-09-09T01:15:50;9.85;;;8.27;;
6955;SDS011;50345;51.136;16.886;2022-09-09T01:18:19;7.00;;;6.50;;
6955;SDS011;50345;51.136;16.886;2022-09-09T01:23:27;9.57;;;8.77;;
6955;SDS011;50345;51.136;16.886;2022-09-09T01:28:52;12.20;;;11.10;;
6955;SDS011;50345;51.136;16.886;2022-09-09T01:31:23;12.02;;;11.02;;
6955;SDS011;50345;51.136;16.886;2022-09-09T01:33:53;12.48;;;11.45;;
6955;SDS011;50345;51.136;16.886;2022-09-09T01:36:29;11.93;;;10.93;;
6955;SDS011;50345;51.136;16.886;2022-09-09T01:39:03;11.40;;;10.50;;
6955;SDS011;50345;51.136;16.886;2022-09-09T01:41:29;12.13;;;11.20;;
6955;SDS011;50345;51.136;16.886;2022-09-09T01:43:55;11.27;;;10.37;;
6955;SDS011;50345;51.136;16.886;2022-09-09T01:46:22;10.52;;;9.60;;
6955;SDS011;50345;51.136;16.886;2022-09-09T01:48:48;9.00;;;8.30;;
6955;SDS011;50345;51.136;16.886;2022-09-09T01:51:16;10.07;;;9.18;;
6955;SDS011;50345;51.136;16.886;2022-09-09T01:53:42;23.70;;;21.67;;
6955;SDS011;50345;51.136;16.886;2022-09-09T01:56:24;28.08;;;25.67;;
6955;SDS011;50345;51.136;16.886;2022-09-09T02:04:01;26.45;;;24.15;;
6955;SDS011;50345;51.136;16.886;2022-09-09T02:06:37;35.75;;;32.33;;
6955;SDS011;50345;51.136;16.886;2022-09-09T02:09:05;38.25;;;34.95;;
6955;SDS011;50345;51.136;16.886;2022-09-09T02:11:33;32.20;;;29.45;;
6955;SDS011;50345;51.136;16.886;2022-09-09T02:14:06;39.83;;;36.42;;
6955;SDS011;50345;51.136;16.886;2022-09-09T02:16:40;47.35;;;43.05;;
6955;SDS011;50345;51.136;16.886;2022-09-09T02:19:16;27.33;;;25.10;;
6955;SDS011;50345;51.136;16.886;2022-09-09T02:22:01;13.25;;;12.00;;
6955;SDS011;50345;51.136;16.886;2022-09-09T02:24:29;8.98;;;8.20;;
6955;SDS011;50345;51.136;16.886;2022-09-09T02:26:58;7.55;;;6.93;;
6955;SDS011;50345;51.136;16.886;2022-09-09T02:29:33;6.55;;;6.05;;
6955;SDS011;50345;51.136;16.886;2022-09-09T02:32:04;6.43;;;5.93;;
6955;SDS011;50345;51.136;16.886;2022-09-09T02:34:31;6.55;;;6.05;;
6955;SDS011;50345;51.136;16.886;2022-09-09T02:37:01;7.05;;;6.55;;
6955;SDS011;50345;51.136;16.886;2022-09-09T02:39:28;6.45;;;5.85;;
6955;SDS011;50345;51.136;16.886;2022-09-09T02:41:54;7.00;;;6.37;;
6955;SDS011;50345;51.136;16.886;2022-09-09T02:44:19;6.50;;;5.83;;
6955;SDS011;50345;51.136;16.886;2022-09-09T02:49:41;6.20;;;5.80;;
6955;SDS011;50345;51.136;16.886;2022-09-09T02:52:13;6.50;;;6.00;;
6955;SDS011;50345;51.136;16.886;2022-09-09T02:54:41;5.88;;;5.38;;
6955;SDS011;50345;51.136;16.886;2022-09-09T02:59:37;6.68;;;6.05;;
6955;SDS011;50345;51.136;16.886;2022-09-09T03:02:03;5.10;;;4.78;;
6955;SDS011;50345;51.136;16.886;2022-09-09T03:04:29;5.72;;;5.32;;
6955;SDS011;50345;51.136;16.886;2022-09-09T03:06:56;5.65;;;5.25;;
6955;SDS011;50345;51.136;16.886;2022-09-09T03:09:22;6.03;;;5.53;;
6955;SDS011;50345;51.136;16.886;2022-09-09T03:11:48;5.80;;;5.30;;
6955;SDS011;50345;51.136;16.886;2022-09-09T03:14:14;7.00;;;4.30;;
6955;SDS011;50345;51.136;16.886;2022-09-09T03:16:41;5.47;;;5.15;;
6955;SDS011;50345;51.136;16.886;2022-09-09T03:19:08;6.05;;;5.43;;
6955;SDS011;50345;51.136;16.886;2022-09-09T03:21:34;5.40;;;5.00;;
6955;SDS011;50345;51.136;16.886;2022-09-09T03:24:00;5.20;;;4.75;;
6955;SDS011;50345;51.136;16.886;2022-09-09T03:26:28;5.78;;;5.28;;
6955;SDS011;50345;51.136;16.886;2022-09-09T03:28:55;5.55;;;4.70;;
6955;SDS011;50345;51.136;16.886;2022-09-09T03:31:21;5.90;;;5.43;;
6955;SDS011;50345;51.136;16.886;2022-09-09T03:33:46;5.07;;;4.77;;
6955;SDS011;50345;51.136;16.886;2022-09-09T03:36:12;5.13;;;4.72;;
6955;SDS011;50345;51.136;16.886;2022-09-09T03:38:38;4.60;;;4.28;;
6955;SDS011;50345;51.136;16.886;2022-09-09T03:41:04;4.77;;;4.43;;
6955;SDS011;50345;51.136;16.886;2022-09-09T03:43:30;5.00;;;4.60;;
6955;SDS011;50345;51.136;16.886;2022-09-09T03:45:56;6.17;;;5.67;;
6955;SDS011;50345;51.136;16.886;2022-09-09T03:48:22;5.70;;;5.10;;
6955;SDS011;50345;51.136;16.886;2022-09-09T03:50:48;6.13;;;5.70;;
6955;SDS011;50345;51.136;16.886;2022-09-09T03:53:16;5.65;;;5.25;;
6955;SDS011;50345;51.136;16.886;2022-09-09T03:55:48;5.93;;;5.43;;
6955;SDS011;50345;51.136;16.886;2022-09-09T03:58:15;5.40;;;5.00;;
6955;SDS011;50345;51.136;16.886;2022-09-09T04:00:44;7.57;;;5.63;;
6955;SDS011;50345;51.136;16.886;2022-09-09T04:03:21;5.82;;;5.30;;
6955;SDS011;50345;51.136;16.886;2022-09-09T04:05:49;5.82;;;5.05;;
6955;SDS011;50345;51.136;16.886;2022-09-09T04:08:19;5.93;;;4.75;;
6955;SDS011;50345;51.136;16.886;2022-09-09T04:10:48;6.60;;;6.10;;
6955;SDS011;50345;51.136;16.886;2022-09-09T04:13:15;7.55;;;6.43;;
6955;SDS011;50345;51.136;16.886;2022-09-09T04:15:42;5.63;;;5.13;;
6955;SDS011;50345;51.136;16.886;2022-09-09T04:18:08;6.57;;;6.07;;
6955;SDS011;50345;51.136;16.886;2022-09-09T04:20:34;6.38;;;5.97;;
6955;SDS011;50345;51.136;16.886;2022-09-09T04:23:00;5.73;;;5.33;;
6955;SDS011;50345;51.136;16.886;2022-09-09T04:25:26;7.03;;;5.97;;
6955;SDS011;50345;51.136;16.886;2022-09-09T04:27:55;5.83;;;5.33;;
6955;SDS011;50345;51.136;16.886;2022-09-09T04:30:22;5.45;;;4.95;;
6955;SDS011;50345;51.136;16.886;2022-09-09T04:32:48;6.00;;;5.50;;
6955;SDS011;50345;51.136;16.886;2022-09-09T04:35:13;7.20;;;5.90;;
6955;SDS011;50345;51.136;16.886;2022-09-09T04:37:39;9.88;;;5.75;;
6955;SDS011;50345;51.136;16.886;2022-09-09T04:40:05;5.90;;;5.18;;
6955;SDS011;50345;51.136;16.886;2022-09-09T04:42:35;7.05;;;5.60;;
6955;SDS011;50345;51.136;16.886;2022-09-09T04:45:01;5.78;;;5.30;;
6955;SDS011;50345;51.136;16.886;2022-09-09T04:47:27;6.07;;;5.50;;
6955;SDS011;50345;51.136;16.886;2022-09-09T04:49:53;5.70;;;5.30;;
6955;SDS011;50345;51.136;16.886;2022-09-09T04:52:19;6.03;;;5.35;;
6955;SDS011;50345;51.136;16.886;2022-09-09T04:54:45;6.53;;;6.10;;
6955;SDS011;50345;51.136;16.886;2022-09-09T04:57:11;5.90;;;5.40;;
6955;SDS011;50345;51.136;16.886;2022-09-09T04:59:37;6.40;;;5.97;;
6955;SDS011;50345;51.136;16.886;2022-09-09T05:02:04;6.75;;;6.15;;
6955;SDS011;50345;51.136;16.886;2022-09-09T05:04:30;6.60;;;6.10;;
6955;SDS011;50345;51.136;16.886;2022-09-09T05:06:56;6.70;;;6.20;;
6955;SDS011;50345;51.136;16.886;2022-09-09T05:09:21;6.60;;;6.20;;
6955;SDS011;50345;51.136;16.886;2022-09-09T05:11:47;6.37;;;5.90;;
6955;SDS011;50345;51.136;16.886;2022-09-09T05:14:12;7.03;;;6.53;;
6955;SDS011;50345;51.136;16.886;2022-09-09T05:16:39;6.03;;;5.53;;
6955;SDS011;50345;51.136;16.886;2022-09-09T05:19:05;6.47;;;6.03;;
6955;SDS011;50345;51.136;16.886;2022-09-09T05:21:32;6.43;;;6.03;;
6955;SDS011;50345;51.136;16.886;2022-09-09T05:23:58;6.60;;;6.00;;
6955;SDS011;50345;51.136;16.886;2022-09-09T05:26:25;8.23;;;5.60;;
6955;SDS011;50345;51.136;16.886;2022-09-09T05:28:51;6.80;;;6.20;;
6955;SDS011;50345;51.136;16.886;2022-09-09T05:31:17;6.37;;;5.77;;
6955;SDS011;50345;51.136;16.886;2022-09-09T05:33:44;6.75;;;5.97;;
6955;SDS011;50345;51.136;16.886;2022-09-09T05:36:15;5.50;;;5.10;;
6955;SDS011;50345;51.136;16.886;2022-09-09T05:38:42;6.75;;;6.25;;
6955;SDS011;50345;51.136;16.886;2022-09-09T05:41:09;6.47;;;5.97;;
6955;SDS011;50345;51.136;16.886;2022-09-09T05:43:36;5.95;;;5.45;;
6955;SDS011;50345;51.136;16.886;2022-09-09T05:46:05;7.80;;;6.80;;
6955;SDS011;50345;51.136;16.886;2022-09-09T05:48:37;5.93;;;5.43;;
6955;SDS011;50345;51.136;16.886;2022-09-09T05:51:04;5.70;;;5.30;;
6955;SDS011;50345;51.136;16.886;2022-09-09T05:53:32;7.30;;;6.70;;
6955;SDS011;50345;51.136;16.886;2022-09-09T05:56:06;6.78;;;6.25;;
6955;SDS011;50345;51.136;16.886;2022-09-09T05:58:35;6.55;;;5.95;;
6955;SDS011;50345;51.136;16.886;2022-09-09T06:01:04;4.83;;;4.43;;
6955;SDS011;50345;51.136;16.886;2022-09-09T06:03:31;7.03;;;6.53;;
6955;SDS011;50345;51.136;16.886;2022-09-09T06:05:59;6.50;;;6.00;;
6955;SDS011;50345;51.136;16.886;2022-09-09T06:08:25;6.80;;;6.20;;
6955;SDS011;50345;51.136;16.886;2022-09-09T06:10:52;7.22;;;6.60;;
6955;SDS011;50345;51.136;16.886;2022-09-09T06:13:18;6.73;;;6.23;;
6955;SDS011;50345;51.136;16.886;2022-09-09T06:15:50;6.60;;;5.93;;
6955;SDS011;50345;51.136;16.886;2022-09-09T06:18:17;6.40;;;5.38;;
6955;SDS011;50345;51.136;16.886;2022-09-09T06:20:43;4.88;;;4.47;;
6955;SDS011;50345;51.136;16.886;2022-09-09T06:23:19;5.72;;;5.32;;
6955;SDS011;50345;51.136;16.886;2022-09-09T06:25:45;4.97;;;4.57;;
6955;SDS011;50345;51.136;16.886;2022-09-09T06:28:10;5.50;;;5.10;;
6955;SDS011;50345;51.136;16.886;2022-09-09T06:30:36;5.07;;;4.50;;
6955;SDS011;50345;51.136;16.886;2022-09-09T06:33:03;5.13;;;4.55;;
6955;SDS011;50345;51.136;16.886;2022-09-09T06:35:29;5.03;;;4.63;;
6955;SDS011;50345;51.136;16.886;2022-09-09T06:37:55;5.60;;;5.10;;
6955;SDS011;50345;51.136;16.886;2022-09-09T06:40:23;4.47;;;4.18;;
6955;SDS011;50345;51.136;16.886;2022-09-09T06:42:49;4.25;;;3.90;;
6955;SDS011;50345;51.136;16.886;2022-09-09T06:45:15;5.70;;;4.47;;
6955;SDS011;50345;51.136;16.886;2022-09-09T06:47:41;4.73;;;4.30;;
6955;SDS011;50345;51.136;16.886;2022-09-09T06:50:07;4.73;;;4.33;;
6955;SDS011;50345;51.136;16.886;2022-09-09T06:52:33;7.07;;;4.18;;
6955;SDS011;50345;51.136;16.886;2022-09-09T06:54:59;4.83;;;4.33;;
6955;SDS011;50345;51.136;16.886;2022-09-09T06:57:25;5.13;;;4.77;;
6955;SDS011;50345;51.136;16.886;2022-09-09T06:59:50;3.97;;;3.47;;
6955;SDS011;50345;51.136;16.886;2022-09-09T07:02:16;4.50;;;4.10;;
6955;SDS011;50345;51.136;16.886;2022-09-09T07:04:42;3.20;;;3.00;;
6955;SDS011;50345;51.136;16.886;2022-09-09T07:07:07;3.50;;;3.20;;
6955;SDS011;50345;51.136;16.886;2022-09-09T07:09:34;3.43;;;3.23;;
6955;SDS011;50345;51.136;16.886;2022-09-09T07:12:00;3.33;;;3.13;;
6955;SDS011;50345;51.136;16.886;2022-09-09T07:14:26;3.93;;;3.40;;
6955;SDS011;50345;51.136;16.886;2022-09-09T07:16:52;3.33;;;3.13;;
6955;SDS011;50345;51.136;16.886;2022-09-09T07:19:18;4.83;;;3.20;;
6955;SDS011;50345;51.136;16.886;2022-09-09T07:21:43;2.97;;;2.73;;
6955;SDS011;50345;51.136;16.886;2022-09-09T07:24:09;5.60;;;3.97;;
6955;SDS011;50345;51.136;16.886;2022-09-09T07:26:36;3.37;;;3.07;;
6955;SDS011;50345;51.136;16.886;2022-09-09T07:29:03;5.53;;;4.17;;
6955;SDS011;50345;51.136;16.886;2022-09-09T07:31:29;3.53;;;3.33;;
6955;SDS011;50345;51.136;16.886;2022-09-09T07:33:57;3.93;;;3.63;;
6955;SDS011;50345;51.136;16.886;2022-09-09T07:36:33;5.80;;;3.13;;
6955;SDS011;50345;51.136;16.886;2022-09-09T07:38:59;3.30;;;3.00;;
6955;SDS011;50345;51.136;16.886;2022-09-09T07:41:27;3.13;;;2.83;;
6955;SDS011;50345;51.136;16.886;2022-09-09T07:43:55;2.43;;;2.30;;
6955;SDS011;50345;51.136;16.886;2022-09-09T07:46:22;3.73;;;2.80;;
6955;SDS011;50345;51.136;16.886;2022-09-09T07:48:50;3.17;;;2.93;;
6955;SDS011;50345;51.136;16.886;2022-09-09T07:51:19;3.07;;;2.83;;
6955;SDS011;50345;51.136;16.886;2022-09-09T07:53:46;3.90;;;3.00;;
6955;SDS011;50345;51.136;16.886;2022-09-09T07:56:14;2.50;;;2.30;;
6955;SDS011;50345;51.136;16.886;2022-09-09T07:58:42;3.30;;;2.67;;
6955;SDS011;50345;51.136;16.886;2022-09-09T08:01:11;4.43;;;3.60;;
6955;SDS011;50345;51.136;16.886;2022-09-09T08:03:45;3.17;;;2.97;;
6955;SDS011;50345;51.136;16.886;2022-09-09T08:06:12;2.70;;;2.50;;
6955;SDS011;50345;51.136;16.886;2022-09-09T08:08:38;2.57;;;2.37;;
6955;SDS011;50345;51.136;16.886;2022-09-09T08:11:11;3.40;;;2.03;;
6955;SDS011;50345;51.136;16.886;2022-09-09T08:13:38;3.13;;;2.13;;
6955;SDS011;50345;51.136;16.886;2022-09-09T08:16:05;3.30;;;2.13;;
6955;SDS011;50345;51.136;16.886;2022-09-09T08:18:32;2.53;;;2.10;;
6955;SDS011;50345;51.136;16.886;2022-09-09T08:21:04;5.40;;;2.60;;
6955;SDS011;50345;51.136;16.886;2022-09-09T08:23:30;2.53;;;2.17;;
6955;SDS011;50345;51.136;16.886;2022-09-09T08:26:02;3.43;;;3.13;;
6955;SDS011;50345;51.136;16.886;2022-09-09T08:28:29;2.97;;;2.60;;
6955;SDS011;50345;51.136;16.886;2022-09-09T08:30:56;2.83;;;2.50;;
6955;SDS011;50345;51.136;16.886;2022-09-09T08:33:22;3.70;;;2.90;;
6955;SDS011;50345;51.136;16.886;2022-09-09T08:35:50;2.40;;;2.10;;
6955;SDS011;50345;51.136;16.886;2022-09-09T08:38:17;2.97;;;2.67;;
6955;SDS011;50345;51.136;16.886;2022-09-09T08:40:43;3.33;;;2.00;;
6955;SDS011;50345;51.136;16.886;2022-09-09T08:43:14;3.10;;;2.30;;
6955;SDS011;50345;51.136;16.886;2022-09-09T08:45:57;3.30;;;2.57;;
6955;SDS011;50345;51.136;16.886;2022-09-09T08:48:56;3.03;;;1.70;;
6955;SDS011;50345;51.136;16.886;2022-09-09T08:51:27;4.63;;;2.23;;
6955;SDS011;50345;51.136;16.886;2022-09-09T08:53:55;2.90;;;2.70;;
6955;SDS011;50345;51.136;16.886;2022-09-09T08:56:25;2.20;;;2.00;;
6955;SDS011;50345;51.136;16.886;2022-09-09T08:58:53;2.00;;;1.63;;
6955;SDS011;50345;51.136;16.886;2022-09-09T09:12:22;2.10;;;1.70;;
6955;SDS011;50345;51.136;16.886;2022-09-09T09:14:49;2.17;;;1.97;;
6955;SDS011;50345;51.136;16.886;2022-09-09T09:17:17;3.43;;;1.60;;
6955;SDS011;50345;51.136;16.886;2022-09-09T09:19:44;2.70;;;1.90;;
6955;SDS011;50345;51.136;16.886;2022-09-09T09:25:25;1.63;;;1.53;;
6955;SDS011;50345;51.136;16.886;2022-09-09T09:28:07;1.40;;;1.30;;
6955;SDS011;50345;51.136;16.886;2022-09-09T09:30:39;2.87;;;2.20;;
6955;SDS011;50345;51.136;16.886;2022-09-09T09:33:10;1.97;;;1.50;;
6955;SDS011;50345;51.136;16.886;2022-09-09T09:35:40;2.03;;;1.60;;
6955;SDS011;50345;51.136;16.886;2022-09-09T09:38:18;2.07;;;1.60;;
6955;SDS011;50345;51.136;16.886;2022-09-09T09:40:49;2.37;;;2.17;;
6955;SDS011;50345;51.136;16.886;2022-09-09T09:43:20;2.03;;;1.70;;
6955;SDS011;50345;51.136;16.886;2022-09-09T09:45:47;4.30;;;1.93;;
6955;SDS011;50345;51.136;16.886;2022-09-09T09:48:13;2.90;;;1.90;;
6955;SDS011;50345;51.136;16.886;2022-09-09T09:50:46;1.80;;;1.70;;
6955;SDS011;50345;51.136;16.886;2022-09-09T09:53:29;4.63;;;1.63;;
6955;SDS011;50345;51.136;16.886;2022-09-09T09:55:58;2.40;;;1.53;;
6955;SDS011;50345;51.136;16.886;2022-09-09T09:58:26;1.60;;;1.40;;
6955;SDS011;50345;51.136;16.886;2022-09-09T10:00:56;3.67;;;1.77;;
6955;SDS011;50345;51.136;16.886;2022-09-09T10:03:26;2.57;;;1.47;;
6955;SDS011;50345;51.136;16.886;2022-09-09T10:05:54;2.40;;;1.50;;
6955;SDS011;50345;51.136;16.886;2022-09-09T10:08:22;3.40;;;1.70;;
6955;SDS011;50345;51.136;16.886;2022-09-09T10:10:57;3.10;;;1.67;;
6955;SDS011;50345;51.136;16.886;2022-09-09T10:19:09;1.67;;;1.40;;
6955;SDS011;50345;51.136;16.886;2022-09-09T10:30:09;2.30;;;1.90;;
6955;SDS011;50345;51.136;16.886;2022-09-09T10:32:39;1.73;;;1.63;;
6955;SDS011;50345;51.136;16.886;2022-09-09T10:56:55;3.60;;;1.93;;
6955;SDS011;50345;51.136;16.886;2022-09-09T10:59:24;3.70;;;1.83;;
6955;SDS011;50345;51.136;16.886;2022-09-09T11:02:01;2.50;;;1.83;;
6955;SDS011;50345;51.136;16.886;2022-09-09T11:07:05;1.83;;;1.60;;
6955;SDS011;50345;51.136;16.886;2022-09-09T11:09:35;3.57;;;2.17;;
6955;SDS011;50345;51.136;16.886;2022-09-09T11:12:06;3.40;;;1.73;;
6955;SDS011;50345;51.136;16.886;2022-09-09T11:14:48;2.50;;;1.70;;
6955;SDS011;50345;51.136;16.886;2022-09-09T11:17:18;3.10;;;1.80;;
6955;SDS011;50345;51.136;16.886;2022-09-09T11:19:44;2.87;;;2.20;;
6955;SDS011;50345;51.136;16.886;2022-09-09T11:22:21;2.17;;;2.00;;
6955;SDS011;50345;51.136;16.886;2022-09-09T11:27:44;3.07;;;1.67;;
6955;SDS011;50345;51.136;16.886;2022-09-09T11:40:56;2.10;;;1.60;;
6955;SDS011;50345;51.136;16.886;2022-09-09T11:43:27;2.00;;;1.23;;
6955;SDS011;50345;51.136;16.886;2022-09-09T11:45:54;1.80;;;1.30;;
6955;SDS011;50345;51.136;16.886;2022-09-09T11:48:28;1.40;;;1.30;;
6955;SDS011;50345;51.136;16.886;2022-09-09T11:50:59;1.40;;;1.30;;
6955;SDS011;50345;51.136;16.886;2022-09-09T11:53:25;1.70;;;1.57;;
6955;SDS011;50345;51.136;16.886;2022-09-09T11:58:28;3.00;;;1.03;;
6955;SDS011;50345;51.136;16.886;2022-09-09T12:00:57;2.97;;;2.00;;
6955;SDS011;50345;51.136;16.886;2022-09-09T12:08:36;8.43;;;7.73;;
6955;SDS011;50345;51.136;16.886;2022-09-09T12:11:07;2.57;;;1.80;;
6955;SDS011;50345;51.136;16.886;2022-09-09T12:13:33;2.60;;;1.63;;
6955;SDS011;50345;51.136;16.886;2022-09-09T12:16:00;2.23;;;1.47;;
6955;SDS011;50345;51.136;16.886;2022-09-09T12:18:37;3.97;;;1.50;;
6955;SDS011;50345;51.136;16.886;2022-09-09T12:21:10;2.50;;;1.13;;
6955;SDS011;50345;51.136;16.886;2022-09-09T12:23:42;1.40;;;1.30;;
6955;SDS011;50345;51.136;16.886;2022-09-09T12:26:21;1.80;;;1.40;;
6955;SDS011;50345;51.136;16.886;2022-09-09T12:31:41;12.87;;;3.30;;
6955;SDS011;50345;51.136;16.886;2022-09-09T12:36:53;4.27;;;2.33;;
6955;SDS011;50345;51.136;16.886;2022-09-09T12:39:29;3.27;;;1.30;;
6955;SDS011;50345;51.136;16.886;2022-09-09T12:41:57;2.47;;;2.27;;
6955;SDS011;50345;51.136;16.886;2022-09-09T12:44:23;3.13;;;1.60;;
6955;SDS011;50345;51.136;16.886;2022-09-09T12:46:50;3.10;;;1.30;;
6955;SDS011;50345;51.136;16.886;2022-09-09T12:52:12;4.90;;;4.50;;
6955;SDS011;50345;51.136;16.886;2022-09-09T12:54:42;10.50;;;2.23;;
6955;SDS011;50345;51.136;16.886;2022-09-09T12:57:12;1.77;;;1.67;;
6955;SDS011;50345;51.136;16.886;2022-09-09T12:59:40;2.30;;;1.20;;
6955;SDS011;50345;51.136;16.886;2022-09-09T13:02:17;2.23;;;1.33;;
6955;SDS011;50345;51.136;16.886;2022-09-09T13:04:44;3.70;;;1.30;;
6955;SDS011;50345;51.136;16.886;2022-09-09T13:07:11;2.40;;;1.40;;
6955;SDS011;50345;51.136;16.886;2022-09-09T13:09:38;2.80;;;1.43;;
6955;SDS011;50345;51.136;16.886;2022-09-09T13:12:05;1.40;;;1.30;;
6955;SDS011;50345;51.136;16.886;2022-09-09T13:14:34;2.10;;;1.47;;
6955;SDS011;50345;51.136;16.886;2022-09-09T13:17:03;1.20;;;1.10;;
6955;SDS011;50345;51.136;16.886;2022-09-09T13:19:31;4.60;;;1.27;;
6955;SDS011;50345;51.136;16.886;2022-09-09T13:21:58;1.73;;;1.40;;
6955;SDS011;50345;51.136;16.886;2022-09-09T13:24:31;1.53;;;1.33;;
6955;SDS011;50345;51.136;16.886;2022-09-09T13:27:05;1.23;;;1.13;;
6955;SDS011;50345;51.136;16.886;2022-09-09T13:29:51;1.43;;;1.10;;
6955;SDS011;50345;51.136;16.886;2022-09-09T13:32:20;3.00;;;1.67;;
6955;SDS011;50345;51.136;16.886;2022-09-09T13:34:50;1.50;;;1.40;;
6955;SDS011;50345;51.136;16.886;2022-09-09T13:37:28;1.83;;;1.50;;
6955;SDS011;50345;51.136;16.886;2022-09-09T13:39:56;1.20;;;1.10;;
6955;SDS011;50345;51.136;16.886;2022-09-09T13:42:26;1.37;;;1.27;;
6955;SDS011;50345;51.136;16.886;2022-09-09T13:44:53;3.50;;;2.27;;
6955;SDS011;50345;51.136;16.886;2022-09-09T13:47:20;2.33;;;1.50;;
6955;SDS011;50345;51.136;16.886;2022-09-09T13:49:46;3.10;;;1.53;;
6955;SDS011;50345;51.136;16.886;2022-09-09T13:52:13;1.70;;;1.50;;
6955;SDS011;50345;51.136;16.886;2022-09-09T13:54:41;2.00;;;1.40;;
6955;SDS011;50345;51.136;16.886;2022-09-09T13:57:18;1.43;;;1.33;;
6955;SDS011;50345;51.136;16.886;2022-09-09T13:59:45;1.80;;;1.30;;
6955;SDS011;50345;51.136;16.886;2022-09-09T14:02:11;1.80;;;1.70;;
6955;SDS011;50345;51.136;16.886;2022-09-09T14:04:37;2.00;;;1.67;;
6955;SDS011;50345;51.136;16.886;2022-09-09T14:07:07;1.70;;;1.60;;
6955;SDS011;50345;51.136;16.886;2022-09-09T14:09:34;1.43;;;1.33;;
6955;SDS011;50345;51.136;16.886;2022-09-09T14:12:01;1.83;;;1.20;;
6955;SDS011;50345;51.136;16.886;2022-09-09T14:14:27;1.70;;;1.60;;
6955;SDS011;50345;51.136;16.886;2022-09-09T14:16:53;2.37;;;1.50;;
6955;SDS011;50345;51.136;16.886;2022-09-09T14:19:19;1.73;;;1.63;;
6955;SDS011;50345;51.136;16.886;2022-09-09T14:21:45;1.50;;;1.40;;
6955;SDS011;50345;51.136;16.886;2022-09-09T14:24:11;1.37;;;1.27;;
6955;SDS011;50345;51.136;16.886;2022-09-09T14:26:37;1.20;;;1.10;;
6955;SDS011;50345;51.136;16.886;2022-09-09T14:29:03;1.40;;;1.20;;
6955;SDS011;50345;51.136;16.886;2022-09-09T14:31:29;1.30;;;1.20;;
6955;SDS011;50345;51.136;16.886;2022-09-09T14:33:55;1.20;;;1.10;;
6955;SDS011;50345;51.136;16.886;2022-09-09T14:36:21;1.63;;;1.30;;
6955;SDS011;50345;51.136;16.886;2022-09-09T14:38:49;1.70;;;1.60;;
6955;SDS011;50345;51.136;16.886;2022-09-09T14:41:16;1.40;;;1.30;;
6955;SDS011;50345;51.136;16.886;2022-09-09T14:43:42;3.23;;;1.30;;
6955;SDS011;50345;51.136;16.886;2022-09-09T14:46:09;1.37;;;1.27;;
6955;SDS011;50345;51.136;16.886;2022-09-09T14:48:35;2.47;;;2.27;;
6955;SDS011;50345;51.136;16.886;2022-09-09T14:51:08;3.03;;;2.00;;
6955;SDS011;50345;51.136;16.886;2022-09-09T14:53:34;1.73;;;1.50;;
6955;SDS011;50345;51.136;16.886;2022-09-09T14:56:19;5.60;;;2.17;;
6955;SDS011;50345;51.136;16.886;2022-09-09T14:58:47;2.90;;;1.43;;
6955;SDS011;50345;51.136;16.886;2022-09-09T15:01:14;1.80;;;1.50;;
6955;SDS011;50345;51.136;16.886;2022-09-09T15:03:41;2.40;;;1.70;;
6955;SDS011;50345;51.136;16.886;2022-09-09T15:06:11;5.27;;;4.50;;
6955;SDS011;50345;51.136;16.886;2022-09-09T15:08:39;3.10;;;2.80;;
6955;SDS011;50345;51.136;16.886;2022-09-09T15:11:06;7.73;;;2.07;;
6955;SDS011;50345;51.136;16.886;2022-09-09T15:13:33;7.10;;;2.47;;
6955;SDS011;50345;51.136;16.886;2022-09-09T15:16:15;5.30;;;2.70;;
6955;SDS011;50345;51.136;16.886;2022-09-09T15:18:41;4.93;;;2.20;;
6955;SDS011;50345;51.136;16.886;2022-09-09T15:21:10;2.00;;;1.90;;
6955;SDS011;50345;51.136;16.886;2022-09-09T15:23:36;1.60;;;1.50;;
6955;SDS011;50345;51.136;16.886;2022-09-09T15:26:02;5.73;;;2.30;;
6955;SDS011;50345;51.136;16.886;2022-09-09T15:28:29;1.60;;;1.50;;
6955;SDS011;50345;51.136;16.886;2022-09-09T15:30:55;6.40;;;2.97;;
6955;SDS011;50345;51.136;16.886;2022-09-09T15:33:21;5.43;;;1.77;;
6955;SDS011;50345;51.136;16.886;2022-09-09T15:35:48;2.43;;;2.23;;
6955;SDS011;50345;51.136;16.886;2022-09-09T15:38:14;2.70;;;1.67;;
6955;SDS011;50345;51.136;16.886;2022-09-09T15:40:41;1.80;;;1.70;;
6955;SDS011;50345;51.136;16.886;2022-09-09T15:43:08;1.97;;;1.40;;
6955;SDS011;50345;51.136;16.886;2022-09-09T15:45:35;4.07;;;1.90;;
6955;SDS011;50345;51.136;16.886;2022-09-09T15:48:02;3.07;;;1.90;;
6955;SDS011;50345;51.136;16.886;2022-09-09T15:50:29;4.10;;;1.47;;
6955;SDS011;50345;51.136;16.886;2022-09-09T15:52:58;3.03;;;1.80;;
6955;SDS011;50345;51.136;16.886;2022-09-09T15:55:24;3.00;;;1.70;;
6955;SDS011;50345;51.136;16.886;2022-09-09T15:57:50;2.43;;;1.70;;
6955;SDS011;50345;51.136;16.886;2022-09-09T16:00:20;1.73;;;1.63;;
6955;SDS011;50345;51.136;16.886;2022-09-09T16:02:46;4.53;;;2.03;;
6955;SDS011;50345;51.136;16.886;2022-09-09T16:05:13;3.23;;;1.80;;
6955;SDS011;50345;51.136;16.886;2022-09-09T16:07:38;2.10;;;2.00;;
6955;SDS011;50345;51.136;16.886;2022-09-09T16:10:05;1.93;;;1.83;;
6955;SDS011;50345;51.136;16.886;2022-09-09T16:12:31;1.77;;;1.67;;
6955;SDS011;50345;51.136;16.886;2022-09-09T16:14:57;2.90;;;1.97;;
6955;SDS011;50345;51.136;16.886;2022-09-09T16:17:24;2.60;;;1.90;;
6955;SDS011;50345;51.136;16.886;2022-09-09T16:19:52;2.90;;;1.80;;
6955;SDS011;50345;51.136;16.886;2022-09-09T16:22:19;2.90;;;1.77;;
6955;SDS011;50345;51.136;16.886;2022-09-09T16:24:45;1.87;;;1.77;;
6955;SDS011;50345;51.136;16.886;2022-09-09T16:27:11;6.07;;;5.57;;
6955;SDS011;50345;51.136;16.886;2022-09-09T16:29:37;6.80;;;4.20;;
6955;SDS011;50345;51.136;16.886;2022-09-09T16:32:03;2.70;;;2.50;;
6955;SDS011;50345;51.136;16.886;2022-09-09T16:34:29;2.70;;;2.50;;
6955;SDS011;50345;51.136;16.886;2022-09-09T16:36:55;3.43;;;2.63;;
6955;SDS011;50345;51.136;16.886;2022-09-09T16:39:21;5.10;;;2.17;;
6955;SDS011;50345;51.136;16.886;2022-09-09T16:41:47;4.60;;;3.50;;
6955;SDS011;50345;51.136;16.886;2022-09-09T16:44:15;7.30;;;4.97;;
6955;SDS011;50345;51.136;16.886;2022-09-09T16:46:43;4.53;;;4.13;;
6955;SDS011;50345;51.136;16.886;2022-09-09T16:49:10;4.40;;;3.33;;
6955;SDS011;50345;51.136;16.886;2022-09-09T16:51:37;4.97;;;3.80;;
6955;SDS011;50345;51.136;16.886;2022-09-09T16:54:05;7.20;;;2.90;;
6955;SDS011;50345;51.136;16.886;2022-09-09T16:56:38;3.60;;;3.30;;
6955;SDS011;50345;51.136;16.886;2022-09-09T16:59:10;4.23;;;2.70;;
6955;SDS011;50345;51.136;16.886;2022-09-09T17:01:38;6.60;;;3.97;;